This is the latest recevied weather packets stored in our database for station/object K7SFN. If no packets are shown the sender has not sent any weather packets the latest 10 day(s).
| Time | Temp. | Humidity | Pressure | Rain* | Wind** | Luminosity | Snow |
|---|---|---|---|---|---|---|---|
| 1777236604 | 11.11° C | 48% | 1008.4 hPa | 0 mm | - | - | - |
| 1777235104 | 11.67° C | 46% | 1008.3 hPa | 0 mm | - | - | - |
| 1777234805 | 11.67° C | 44% | 1008.3 hPa | 0 mm | - | - | - |
| 1777232404 | 12.22° C | 39% | 1008.1 hPa | 0 mm | - | - | - |
| 1777229704 | 11.11° C | 47% | 1008.2 hPa | 0 mm | - | - | - |
| 1777226704 | 10.56° C | 49% | 1008.3 hPa | 0 mm | - | - | - |
| 1777226404 | 10.56° C | 48% | 1008.2 hPa | 0 mm | - | - | - |
| 1777225204 | 9.44° C | 54% | 1008 hPa | 0 mm | - | - | - |
| 1777223404 | 8.33° C | 55% | 1007.6 hPa | 0 mm | - | - | - |
| 1777217104 | 7.22° C | 55% | 1007.1 hPa | 0 mm | - | - | - |
| 1777214704 | 5° C | 70% | 1007.2 hPa | 0 mm | - | - | - |
| 1777213804 | 3.89° C | 79% | 1007.3 hPa | 0 mm | - | - | - |
| 1777212904 | 3.89° C | 80% | 1007.2 hPa | 0 mm | - | - | - |
| 1777212004 | 2.78° C | 79% | 1007.1 hPa | 0 mm | - | - | - |
| 1777211704 | 2.78° C | 80% | 1007.2 hPa | 0 mm | - | - | - |
| 1777208104 | 3.33° C | 79% | 1006.5 hPa | 0 mm | - | - | - |
| 1777207504 | 3.33° C | 77% | 1006.4 hPa | 0 mm | - | - | - |
| 1777204804 | 3.33° C | 77% | 1006.1 hPa | 0 mm | - | - | - |
| 1777204504 | 3.33° C | 78% | 1006 hPa | 0 mm | - | - | - |
| 1777202104 | 2.78° C | 75% | 1005.9 hPa | 0 mm | - | - | - |
| 1777200604 | 3.89° C | 74% | 1006 hPa | 0 mm | - | - | - |
| 1777199705 | 3.89° C | 74% | 1005.9 hPa | 0 mm | - | - | - |
| 1777199104 | 3.89° C | 73% | 1005.8 hPa | 0 mm | - | - | - |
| 1777198504 | 3.89° C | 72% | 1005.7 hPa | 0 mm | - | - | - |
| 1777192804 | 5° C | 67% | 1005.5 hPa | 0 mm | - | - | - |
* Rain latest hour (hover to see other rain measurements)
** Current wind speed in m/s (hover to see current wind gust speed)